createdAt,value
2022-09-25T00:00:54.675Z,68320.00
2022-09-25T00:03:25.338Z,68322.84
2022-09-25T00:05:53.526Z,68317.16
2022-09-25T00:08:20.780Z,68323.59
2022-09-25T00:10:51.089Z,68321.34
2022-09-25T00:13:20.307Z,68317.38
2022-09-25T00:15:49.604Z,68313.03
2022-09-25T00:18:38.000Z,68302.25
2022-09-25T00:21:06.229Z,68290.34
2022-09-25T00:23:34.539Z,68280.16
2022-09-25T00:26:02.852Z,68285.06
2022-09-25T00:28:31.928Z,68287.53
2022-09-25T00:30:59.955Z,68296.41
2022-09-25T00:33:27.925Z,68305.44
2022-09-25T00:35:55.011Z,68299.22
2022-09-25T00:38:22.113Z,68306.22
2022-09-25T00:40:49.398Z,68313.03
2022-09-25T00:43:33.488Z,68318.69
2022-09-25T00:46:03.494Z,68315.28
2022-09-25T00:48:31.274Z,68315.66
2022-09-25T00:51:00.135Z,68308.47
2022-09-25T00:53:33.290Z,68317.00
2022-09-25T00:56:03.049Z,68317.38
2022-09-25T00:58:33.323Z,68325.31
2022-09-25T01:01:01.073Z,68322.66
2022-09-25T01:03:28.649Z,68319.81
2022-09-25T01:05:57.791Z,68327.78
2022-09-25T01:08:27.869Z,68317.56
2022-09-25T01:10:55.726Z,68316.06
2022-09-25T01:13:23.763Z,68321.34
2022-09-25T01:15:59.451Z,68321.34
2022-09-25T01:18:47.315Z,68314.72
2022-09-25T01:21:34.298Z,68313.03
2022-09-25T01:24:19.080Z,68326.25
2022-09-25T01:27:10.123Z,68324.16
2022-09-25T01:30:10.168Z,68323.41
2022-09-25T01:32:46.999Z,68318.88
2022-09-25T01:35:26.693Z,68307.34
2022-09-25T01:38:00.133Z,68314.53
2022-09-25T01:41:02.467Z,68313.41
2022-09-25T01:43:40.574Z,68309.63
2022-09-25T01:46:17.077Z,68304.50
2022-09-25T01:48:49.695Z,68307.34
2022-09-25T01:51:22.074Z,68307.91
2022-09-25T01:53:55.198Z,68318.69
2022-09-25T01:56:33.782Z,68317.56
2022-09-25T01:59:17.687Z,68320.97
2022-09-25T02:01:47.892Z,68316.22
2022-09-25T02:04:22.850Z,68319.81
2022-09-25T02:06:51.861Z,68316.44
2022-09-25T02:09:33.358Z,68309.81
2022-09-25T02:12:07.526Z,68316.63
2022-09-25T02:14:46.654Z,68312.25
2022-09-25T02:17:41.824Z,68318.88
2022-09-25T02:20:28.679Z,68319.25
2022-09-25T02:23:05.029Z,68311.13
2022-09-25T02:25:42.797Z,68312.66
2022-09-25T02:28:10.313Z,68317.38
2022-09-25T02:30:37.651Z,68317.00
2022-09-25T02:33:04.995Z,68318.69
2022-09-25T02:35:32.711Z,68311.88
2022-09-25T02:38:00.216Z,68307.34
2022-09-25T02:40:53.992Z,68303.19
2022-09-25T02:43:26.949Z,68299.81
2022-09-25T02:46:12.381Z,68301.31
2022-09-25T02:48:57.344Z,68287.53
2022-09-25T02:51:37.477Z,68299.22
2022-09-25T02:54:12.748Z,68296.97
2022-09-25T02:57:04.102Z,68291.50
2022-09-25T02:59:40.349Z,68294.69
2022-09-25T03:02:10.291Z,68295.25
2022-09-25T03:04:39.118Z,68288.09
2022-09-25T03:07:07.386Z,68287.53
2022-09-25T03:09:36.932Z,68282.97
2022-09-25T03:12:05.217Z,68289.03
2022-09-25T03:14:32.681Z,68285.06
2022-09-25T03:17:05.551Z,68277.50
2022-09-25T03:19:34.847Z,68288.84
2022-09-25T03:22:03.077Z,68290.16
2022-09-25T03:24:31.106Z,68290.34
2022-09-25T03:26:58.780Z,68303.38
2022-09-25T03:29:26.129Z,68302.06
2022-09-25T03:31:53.338Z,68302.63
2022-09-25T03:34:21.216Z,68312.25
2022-09-25T03:36:48.462Z,68307.53
2022-09-25T03:39:18.012Z,68282.41
2022-09-25T03:41:45.720Z,68307.75
2022-09-25T03:44:13.136Z,68299.81
2022-09-25T03:46:40.532Z,68291.50
2022-09-25T03:49:07.724Z,68299.22
2022-09-25T03:51:35.228Z,68297.53
2022-09-25T03:54:04.276Z,68292.44
2022-09-25T03:56:32.901Z,68287.16
2022-09-25T03:59:00.251Z,68281.47
2022-09-25T04:01:28.660Z,68269.38
2022-09-25T04:03:56.060Z,68277.69
2022-09-25T04:06:26.543Z,68276.56
2022-09-25T04:08:54.378Z,68269.22
2022-09-25T04:11:24.431Z,68270.91
2022-09-25T04:13:52.743Z,68278.47
2022-09-25T04:16:23.516Z,68286.94
2022-09-25T04:18:51.384Z,68288.84
2022-09-25T04:21:18.675Z,68293.00
2022-09-25T04:24:05.766Z,68293.00
2022-09-25T04:26:33.045Z,68291.28
2022-09-25T04:29:03.891Z,68298.28
2022-09-25T04:31:31.976Z,68296.03
2022-09-25T04:33:59.321Z,68297.72
2022-09-25T04:36:26.497Z,68294.53
2022-09-25T04:38:53.692Z,68296.97
2022-09-25T04:41:22.127Z,68291.84
2022-09-25T04:43:49.317Z,68296.97
2022-09-25T04:46:21.944Z,68291.84
2022-09-25T04:48:50.086Z,68299.44
2022-09-25T04:51:20.589Z,68294.53
2022-09-25T04:53:48.159Z,68298.66
2022-09-25T04:56:16.590Z,68290.72
2022-09-25T04:58:48.882Z,68290.16
2022-09-25T05:01:19.026Z,68290.16
2022-09-25T05:03:53.942Z,68277.50
2022-09-25T05:06:22.810Z,68278.84
2022-09-25T05:08:50.233Z,68271.09
2022-09-25T05:11:17.983Z,68270.72
2022-09-25T05:13:48.968Z,68273.72
2022-09-25T05:16:16.485Z,68280.34
2022-09-25T05:18:45.874Z,68284.69
2022-09-25T05:21:13.066Z,68292.44
2022-09-25T05:23:40.238Z,68289.59
2022-09-25T05:26:07.517Z,68294.31
2022-09-25T05:28:34.681Z,68293.00
2022-09-25T05:31:03.895Z,68294.31
2022-09-25T05:33:32.527Z,68292.22
2022-09-25T05:36:04.729Z,68299.22
2022-09-25T05:38:33.589Z,68304.34
2022-09-25T05:41:04.452Z,68301.13
2022-09-25T05:43:32.602Z,68313.03
2022-09-25T05:46:00.420Z,68332.88
2022-09-25T05:48:27.824Z,68340.63
2022-09-25T05:50:56.581Z,68347.03
2022-09-25T05:53:24.545Z,68348.56
2022-09-25T05:55:52.409Z,68352.91
2022-09-25T05:58:19.576Z,68347.25
2022-09-25T06:00:46.683Z,68350.44
2022-09-25T06:03:14.998Z,68359.91
2022-09-25T06:05:42.683Z,68353.47
2022-09-25T06:08:09.862Z,68347.03
2022-09-25T06:10:36.993Z,68351.97
2022-09-25T06:13:07.245Z,68354.97
2022-09-25T06:15:39.363Z,68362.94
2022-09-25T06:18:08.545Z,68365.59
2022-09-25T06:20:36.332Z,68361.78
2022-09-25T06:23:03.796Z,68363.50
2022-09-25T06:25:37.037Z,68366.13
2022-09-25T06:28:04.793Z,68372.00
2022-09-25T06:30:36.548Z,68369.34
2022-09-25T06:33:09.661Z,68369.72
2022-09-25T06:35:42.356Z,68368.59
2022-09-25T06:38:09.970Z,68371.22
2022-09-25T06:40:41.609Z,68362.34
2022-09-25T06:43:16.181Z,68378.03
2022-09-25T06:45:43.936Z,68353.28
2022-09-25T06:48:13.830Z,68371.44
2022-09-25T06:50:42.884Z,68374.63
2022-09-25T06:53:11.385Z,68388.81
2022-09-25T06:55:40.480Z,68382.38
2022-09-25T06:58:11.287Z,68389.38
2022-09-25T07:00:38.634Z,68397.50
2022-09-25T07:03:24.290Z,68423.59
2022-09-25T07:05:52.212Z,68438.91
2022-09-25T07:08:21.180Z,68436.66
2022-09-25T07:10:54.195Z,68442.88
2022-09-25T07:13:27.687Z,68442.50
2022-09-25T07:15:57.727Z,68446.66
2022-09-25T07:18:26.464Z,68447.97
2022-09-25T07:20:54.561Z,68456.50
2022-09-25T07:23:22.671Z,68467.47
2022-09-25T07:25:50.543Z,68476.34
2022-09-25T07:28:20.152Z,68477.50
2022-09-25T07:30:49.493Z,68482.97
2022-09-25T07:33:17.049Z,68494.53
2022-09-25T07:35:44.471Z,68512.88
2022-09-25T07:38:11.634Z,68527.63
2022-09-25T07:40:39.108Z,68549.03
2022-09-25T07:43:06.315Z,68571.72
2022-09-25T07:45:33.513Z,68599.94
2022-09-25T07:48:02.626Z,68615.81
2022-09-25T07:50:31.790Z,68669.25
2022-09-25T07:52:59.371Z,68713.19
2022-09-25T07:55:28.637Z,68733.03
2022-09-25T07:57:58.861Z,68815.00
2022-09-25T08:00:26.297Z,68854.78
2022-09-25T08:02:59.468Z,68841.63
2022-09-25T08:05:27.463Z,68891.97
2022-09-25T08:07:54.933Z,68869.19
2022-09-25T08:10:22.427Z,68850.41
2022-09-25T08:12:50.131Z,68830.53
2022-09-25T08:15:17.498Z,68826.00
2022-09-25T08:17:44.622Z,68825.22
2022-09-25T08:20:11.866Z,68804.94
2022-09-25T08:22:39.133Z,68803.63
2022-09-25T08:25:06.711Z,68803.63
2022-09-25T08:27:41.096Z,68804.38
2022-09-25T08:30:10.205Z,68808.53
2022-09-25T08:32:37.493Z,68822.19
2022-09-25T08:35:05.152Z,68838.47
2022-09-25T08:37:35.365Z,68856.09
2022-09-25T08:40:02.517Z,68863.34
2022-09-25T08:42:36.145Z,68887.63
2022-09-25T08:45:30.764Z,68895.38
2022-09-25T08:48:18.940Z,68906.00
2022-09-25T08:50:46.035Z,68919.09
2022-09-25T08:53:24.347Z,68936.59
2022-09-25T08:56:12.159Z,68932.75
2022-09-25T08:58:42.674Z,68941.31
2022-09-25T09:01:17.370Z,68973.03
2022-09-25T09:03:53.998Z,68977.75
2022-09-25T09:06:23.288Z,68984.75
2022-09-25T09:09:02.068Z,69004.50
2022-09-25T09:11:36.953Z,69013.63
2022-09-25T09:14:13.160Z,69037.72
2022-09-25T09:16:48.432Z,69016.34
2022-09-25T09:19:15.839Z,69036.41
2022-09-25T09:22:00.859Z,69039.81
2022-09-25T09:24:55.435Z,69056.34
2022-09-25T09:27:34.463Z,69078.56
2022-09-25T09:30:10.771Z,69068.16
2022-09-25T09:32:55.170Z,69087.69
2022-09-25T09:35:44.130Z,69090.16
2022-09-25T09:38:21.859Z,69079.56
2022-09-25T09:40:49.310Z,69103.81
2022-09-25T09:43:33.545Z,69111.03
2022-09-25T09:46:11.185Z,69120.34
2022-09-25T09:48:56.784Z,69106.91
2022-09-25T09:51:33.067Z,69137.44
2022-09-25T09:54:07.483Z,69097.81
2022-09-25T09:56:35.958Z,69109.91
2022-09-25T09:59:14.986Z,69107.22
2022-09-25T10:01:45.197Z,69112.00
2022-09-25T10:04:17.401Z,69113.31
2022-09-25T10:06:52.507Z,69118.47
2022-09-25T10:09:19.841Z,69121.88
2022-09-25T10:11:53.827Z,69145.06
2022-09-25T10:14:26.559Z,69160.63
2022-09-25T10:16:53.911Z,69186.31
2022-09-25T10:19:24.187Z,69173.94
2022-09-25T10:22:05.292Z,69202.25
2022-09-25T10:24:54.914Z,69200.56
2022-09-25T10:27:36.732Z,69162.72
2022-09-25T10:30:10.111Z,69163.66
2022-09-25T10:32:58.392Z,69190.84
2022-09-25T10:35:42.478Z,69204.53
2022-09-25T10:38:48.410Z,69222.97
2022-09-25T10:41:21.392Z,69227.75
2022-09-25T10:43:54.023Z,69217.47
2022-09-25T10:46:54.671Z,69210.44
2022-09-25T10:49:45.636Z,69221.44
2022-09-25T10:52:14.791Z,69250.56
2022-09-25T10:54:45.647Z,69262.88
2022-09-25T10:57:38.615Z,69260.44
2022-09-25T11:00:24.360Z,69261.75
2022-09-25T11:02:56.502Z,69269.19
2022-09-25T11:05:30.567Z,69294.09
2022-09-25T11:08:00.388Z,69280.00
2022-09-25T11:10:31.707Z,69277.16
2022-09-25T11:12:59.358Z,69254.56
2022-09-25T11:15:27.701Z,69260.44
2022-09-25T11:17:56.953Z,69236.50
2022-09-25T11:20:31.216Z,69223.94
2022-09-25T11:23:09.093Z,69203.56
2022-09-25T11:25:59.813Z,69168.81
2022-09-25T11:28:44.458Z,69129.28
2022-09-25T11:31:33.048Z,69122.44
2022-09-25T11:34:40.814Z,69103.81
2022-09-25T11:37:18.422Z,69105.34
2022-09-25T11:40:08.277Z,69128.72
2022-09-25T11:42:45.565Z,69141.97
2022-09-25T11:45:36.555Z,69152.63
2022-09-25T11:48:12.991Z,69134.84
2022-09-25T11:51:29.203Z,69164.81
2022-09-25T11:54:32.060Z,69166.53
2022-09-25T11:57:04.190Z,69145.81
2022-09-25T11:59:53.211Z,69125.28
2022-09-25T12:02:41.056Z,69103.81
2022-09-25T12:05:32.607Z,69118.47
2022-09-25T12:08:08.585Z,69112.19
2022-09-25T12:10:56.976Z,69067.59
2022-09-25T12:13:24.102Z,69081.03
2022-09-25T12:16:06.066Z,69083.31
2022-09-25T12:18:47.807Z,69103.06
2022-09-25T12:21:32.514Z,69098.69
2022-09-25T12:24:40.204Z,69093.94
2022-09-25T12:27:49.382Z,69089.56
2022-09-25T12:30:23.445Z,69099.88
2022-09-25T12:32:53.802Z,69067.03
2022-09-25T12:35:57.660Z,69092.81
2022-09-25T12:38:38.240Z,69090.72
2022-09-25T12:41:29.916Z,69085.19
2022-09-25T12:44:04.623Z,69073.63
2022-09-25T12:47:22.459Z,69071.56
2022-09-25T12:49:53.801Z,69095.09
2022-09-25T12:52:27.507Z,69084.84
2022-09-25T12:54:57.734Z,69073.44
2022-09-25T12:57:32.921Z,69064.53
2022-09-25T13:00:20.317Z,69065.47
2022-09-25T13:02:58.779Z,69067.75
2022-09-25T13:05:47.525Z,69057.31
2022-09-25T13:08:39.706Z,69072.88
2022-09-25T13:11:15.922Z,69064.78
2022-09-25T13:13:48.945Z,69092.06
2022-09-25T13:16:16.946Z,69061.88
2022-09-25T13:18:48.990Z,69048.38
2022-09-25T13:21:23.794Z,69048.56
2022-09-25T13:23:53.788Z,69031.66
2022-09-25T13:26:30.283Z,69020.44
2022-09-25T13:29:01.048Z,69017.59
2022-09-25T13:31:34.369Z,69009.63
2022-09-25T13:34:01.675Z,68999.00
2022-09-25T13:36:37.660Z,68994.25
2022-09-25T13:39:45.862Z,68994.81
2022-09-25T13:42:37.921Z,68993.84
2022-09-25T13:45:30.159Z,69002.22
2022-09-25T13:48:06.043Z,68995.22
2022-09-25T13:50:42.857Z,68988.78
2022-09-25T13:53:20.334Z,68992.38
2022-09-25T13:55:50.292Z,68989.53
2022-09-25T13:58:23.293Z,68994.09
2022-09-25T14:00:57.728Z,69004.50
2022-09-25T14:03:37.199Z,69032.41
2022-09-25T14:06:05.310Z,69049.69
2022-09-25T14:08:34.721Z,69039.06
2022-09-25T14:11:07.756Z,69034.91
2022-09-25T14:13:35.392Z,69025.56
2022-09-25T14:16:08.057Z,69017.22
2022-09-25T14:18:41.043Z,69020.44
2022-09-25T14:21:09.871Z,69016.06
2022-09-25T14:23:54.778Z,69026.13
2022-09-25T14:26:29.054Z,69033.53
2022-09-25T14:28:58.041Z,69042.47
2022-09-25T14:31:40.091Z,69040.19
2022-09-25T14:34:44.790Z,69039.25
2022-09-25T14:37:39.520Z,69022.50
2022-09-25T14:40:33.961Z,69035.25
2022-09-25T14:43:27.470Z,69050.09
2022-09-25T14:46:20.181Z,69041.41
2022-09-25T14:48:54.725Z,69055.66
2022-09-25T14:51:26.032Z,69091.84
2022-09-25T14:54:05.090Z,69109.34
2022-09-25T14:56:35.541Z,69122.59
2022-09-25T14:59:10.275Z,69137.28
2022-09-25T15:01:46.801Z,69116.75
2022-09-25T15:04:32.477Z,69105.19
2022-09-25T15:07:13.909Z,69053.94
2022-09-25T15:09:49.643Z,69066.59
2022-09-25T15:12:18.791Z,69091.09
2022-09-25T15:15:14.790Z,69092.63
2022-09-25T15:17:49.818Z,69082.41
2022-09-25T15:20:20.914Z,69091.84
2022-09-25T15:22:59.803Z,69093.03
2022-09-25T15:25:54.001Z,69080.28
2022-09-25T15:28:25.422Z,69089.41
2022-09-25T15:30:58.887Z,69095.50
2022-09-25T15:33:29.306Z,69085.41
2022-09-25T15:35:59.351Z,69044.81
2022-09-25T15:38:35.450Z,69057.66
2022-09-25T15:41:06.357Z,69056.16
2022-09-25T15:43:33.863Z,69058.63
2022-09-25T15:46:11.303Z,69052.94
2022-09-25T15:49:54.408Z,69050.09
2022-09-25T15:52:21.901Z,69048.38
2022-09-25T15:54:49.327Z,69042.09
2022-09-25T15:57:26.193Z,69012.91
2022-09-25T16:00:12.981Z,69013.78
2022-09-25T16:03:09.376Z,69010.03
2022-09-25T16:05:44.014Z,68990.66
2022-09-25T16:08:29.491Z,68979.84
2022-09-25T16:11:23.810Z,68961.06
2022-09-25T16:14:11.222Z,68941.88
2022-09-25T16:16:49.781Z,68939.03
2022-09-25T16:20:32.634Z,68924.59
2022-09-25T16:23:19.248Z,68909.59
2022-09-25T16:25:46.607Z,68903.72
2022-09-25T16:28:22.550Z,68899.75
2022-09-25T16:31:05.803Z,68894.28
2022-09-25T16:33:40.131Z,68881.53
2022-09-25T16:36:18.900Z,68870.72
2022-09-25T16:39:12.193Z,68860.31
2022-09-25T16:41:46.185Z,68850.25
2022-09-25T16:44:32.699Z,68848.38
2022-09-25T16:46:59.996Z,68838.88
2022-09-25T16:49:27.307Z,68830.53
2022-09-25T16:51:55.856Z,68831.69
2022-09-25T16:54:30.791Z,68823.50
2022-09-25T16:56:59.460Z,68820.47
2022-09-25T16:59:28.482Z,68813.84
2022-09-25T17:02:01.241Z,68809.88
2022-09-25T17:04:31.161Z,68801.91
2022-09-25T17:07:02.789Z,68799.06
2022-09-25T17:09:31.425Z,68792.78
2022-09-25T17:12:05.263Z,68793.72
2022-09-25T17:14:32.502Z,68792.03
2022-09-25T17:17:00.474Z,68780.28
2022-09-25T17:19:27.987Z,68770.06
2022-09-25T17:21:56.136Z,68763.22
2022-09-25T17:24:26.701Z,68762.66
2022-09-25T17:26:54.903Z,68764.72
2022-09-25T17:29:22.777Z,68726.78
2022-09-25T17:31:50.516Z,68740.47
2022-09-25T17:34:24.641Z,68732.50
2022-09-25T17:37:22.107Z,68731.41
2022-09-25T17:40:00.950Z,68724.00
2022-09-25T17:42:32.190Z,68714.13
2022-09-25T17:45:03.332Z,68719.25
2022-09-25T17:47:38.242Z,68717.16
2022-09-25T17:50:09.012Z,68728.56
2022-09-25T17:52:36.949Z,68726.84
2022-09-25T17:55:13.828Z,68713.78
2022-09-25T17:57:41.432Z,68699.56
2022-09-25T18:00:17.839Z,68700.50
2022-09-25T18:02:45.711Z,68699.94
2022-09-25T18:05:20.310Z,68696.16
2022-09-25T18:07:55.972Z,68684.22
2022-09-25T18:10:24.113Z,68681.75
2022-09-25T18:12:51.399Z,68684.59
2022-09-25T18:15:18.848Z,68670.56
2022-09-25T18:17:46.411Z,68651.25
2022-09-25T18:20:40.706Z,68631.91
2022-09-25T18:23:08.530Z,68622.84
2022-09-25T18:25:39.118Z,68606.94
2022-09-25T18:28:06.806Z,68583.09
2022-09-25T18:30:35.047Z,68570.03
2022-09-25T18:33:02.475Z,68567.00
2022-09-25T18:35:29.632Z,68560.56
2022-09-25T18:38:00.105Z,68568.69
2022-09-25T18:40:27.425Z,68575.13
2022-09-25T18:42:54.667Z,68573.44
2022-09-25T18:45:22.117Z,68573.25
2022-09-25T18:47:49.219Z,68560.38
2022-09-25T18:50:20.541Z,68561.50
2022-09-25T18:52:48.921Z,68558.50
2022-09-25T18:55:17.127Z,68569.47
2022-09-25T19:01:52.894Z,68574.00
2022-09-25T19:04:20.879Z,68567.75
2022-09-25T19:06:49.794Z,68550.53
2022-09-25T19:09:17.700Z,68544.31
2022-09-25T19:11:45.885Z,68539.56
2022-09-25T19:14:15.033Z,68532.19
2022-09-25T19:16:43.149Z,68528.97
2022-09-25T19:19:12.459Z,68535.41
2022-09-25T19:21:42.744Z,68543.34
2022-09-25T19:24:09.942Z,68550.16
2022-09-25T19:26:37.531Z,68558.69
2022-09-25T19:29:07.708Z,68562.84
2022-09-25T19:31:34.996Z,68558.09
2022-09-25T19:34:02.884Z,68543.16
2022-09-25T19:36:32.566Z,68552.41
2022-09-25T19:39:00.833Z,68553.56
2022-09-25T19:41:34.586Z,68550.75
2022-09-25T19:44:12.873Z,68549.59
2022-09-25T19:46:42.339Z,68537.88
2022-09-25T19:49:11.197Z,68531.81
2022-09-25T19:51:38.998Z,68529.72
2022-09-25T19:54:07.877Z,68536.75
2022-09-25T19:56:40.633Z,68523.47
2022-09-25T19:59:12.607Z,68515.34
2022-09-25T20:02:08.061Z,68512.69
2022-09-25T20:04:37.146Z,68519.50
2022-09-25T20:07:04.372Z,68516.13
2022-09-25T20:09:34.799Z,68505.16
2022-09-25T20:12:05.138Z,68492.81
2022-09-25T20:14:32.305Z,68491.28
2022-09-25T20:16:59.743Z,68489.78
2022-09-25T20:19:27.479Z,68480.88
2022-09-25T20:21:55.585Z,68472.00
2022-09-25T20:24:23.922Z,68472.94
2022-09-25T20:26:52.793Z,68467.28
2022-09-25T20:29:20.081Z,68460.47
2022-09-25T20:31:47.425Z,68461.41
2022-09-25T20:34:20.055Z,68467.47
2022-09-25T20:36:48.079Z,68443.41
2022-09-25T20:39:20.463Z,68468.41
2022-09-25T20:41:49.242Z,68467.47
2022-09-25T20:44:16.667Z,68470.13
2022-09-25T20:46:44.801Z,68463.88
2022-09-25T20:49:13.306Z,68457.06
2022-09-25T20:51:41.224Z,68456.50
2022-09-25T20:54:09.835Z,68451.22
2022-09-25T20:56:38.575Z,68443.66
2022-09-25T20:59:06.069Z,68448.94
2022-09-25T21:01:36.626Z,68461.25
2022-09-25T21:04:07.974Z,68459.31
2022-09-25T21:06:38.115Z,68463.88
2022-09-25T21:09:20.574Z,68464.06
2022-09-25T21:11:48.236Z,68460.84
2022-09-25T21:14:24.468Z,68466.34
2022-09-25T21:16:52.202Z,68469.56
2022-09-25T21:19:21.178Z,68457.84
2022-09-25T21:21:48.793Z,68436.06
2022-09-25T21:24:18.657Z,68431.38
2022-09-25T21:26:46.789Z,68431.38
2022-09-25T21:29:16.084Z,68422.47
2022-09-25T21:31:49.467Z,68423.03
2022-09-25T21:34:19.141Z,68430.59
2022-09-25T21:36:47.411Z,68424.00
2022-09-25T21:39:15.437Z,68428.34
2022-09-25T21:41:42.759Z,68428.13
2022-09-25T21:44:13.485Z,68431.53
2022-09-25T21:46:40.803Z,68426.25
2022-09-25T21:49:08.888Z,68416.78
2022-09-25T21:51:45.322Z,68416.22
2022-09-25T21:54:14.035Z,68434.94
2022-09-25T21:56:41.558Z,68427.75
2022-09-25T21:59:09.604Z,68433.63
2022-09-25T22:01:39.320Z,68431.94
2022-09-25T22:04:10.331Z,68428.91
2022-09-25T22:06:46.249Z,68432.47
2022-09-25T22:09:17.048Z,68432.47
2022-09-25T22:11:45.016Z,68432.47
2022-09-25T22:14:16.038Z,68409.97
2022-09-25T22:16:45.964Z,68438.72
2022-09-25T22:19:19.524Z,68438.91
2022-09-25T22:21:48.611Z,68424.16
2022-09-25T22:24:16.625Z,68423.03
2022-09-25T22:26:47.339Z,68427.97
2022-09-25T22:29:15.684Z,68419.81
2022-09-25T22:31:43.445Z,68420.56
2022-09-25T22:34:15.907Z,68425.69
2022-09-25T22:36:43.021Z,68429.06
2022-09-25T22:39:13.695Z,68424.38
2022-09-25T22:41:40.948Z,68427.00
2022-09-25T22:44:08.342Z,68425.88
2022-09-25T22:46:36.120Z,68425.47
2022-09-25T22:49:03.830Z,68428.13
2022-09-25T22:51:31.226Z,68430.78
2022-09-25T22:53:58.354Z,68423.78
2022-09-25T22:56:35.462Z,68418.69
2022-09-25T22:59:08.585Z,68425.69
2022-09-25T23:01:39.700Z,68427.56
2022-09-25T23:04:10.562Z,68428.72
2022-09-25T23:06:38.994Z,68427.38
2022-09-25T23:09:12.297Z,68427.97
2022-09-25T23:11:39.765Z,68423.03
2022-09-25T23:14:11.189Z,68426.06
2022-09-25T23:16:38.398Z,68420.75
2022-09-25T23:19:05.643Z,68417.72
2022-09-25T23:21:32.809Z,68411.69
2022-09-25T23:24:02.738Z,68410.56
2022-09-25T23:26:30.398Z,68413.03
2022-09-25T23:28:58.470Z,68404.88
2022-09-25T23:31:26.620Z,68399.41
2022-09-25T23:33:53.766Z,68399.22
2022-09-25T23:36:23.201Z,68392.78
2022-09-25T23:38:52.070Z,68399.22
2022-09-25T23:41:39.414Z,68403.00
2022-09-25T23:44:09.141Z,68411.50
2022-09-25T23:46:38.749Z,68399.59
2022-09-25T23:49:06.757Z,68403.19
2022-09-25T23:51:33.868Z,68400.91
2022-09-25T23:54:02.113Z,68406.59
2022-09-25T23:56:31.684Z,68412.63
2022-09-25T23:59:01.294Z,68411.31
